createdAt,value
2024-04-23T00:01:37.775Z,16.00
2024-04-23T00:04:04.686Z,15.60
2024-04-23T00:06:31.354Z,20.00
2024-04-23T00:08:58.062Z,21.43
2024-04-23T00:11:26.466Z,20.37
2024-04-23T00:13:53.271Z,21.23
2024-04-23T00:16:19.995Z,21.03
2024-04-23T00:18:46.815Z,21.43
2024-04-23T00:21:13.520Z,20.80
2024-04-23T00:23:40.191Z,19.60
2024-04-23T00:26:06.875Z,18.70
2024-04-23T00:28:33.616Z,18.43
2024-04-23T00:31:00.448Z,18.17
2024-04-23T00:33:27.918Z,19.13
2024-04-23T00:35:54.624Z,18.77
2024-04-23T00:38:21.407Z,19.60
2024-04-23T00:40:48.219Z,19.63
2024-04-23T00:43:14.991Z,18.57
2024-04-23T00:45:44.305Z,19.13
2024-04-23T00:48:11.089Z,20.17
2024-04-23T00:50:37.848Z,20.27
2024-04-23T00:53:04.684Z,21.50
2024-04-23T00:55:31.509Z,20.67
2024-04-23T00:57:58.285Z,20.60
2024-04-23T01:00:24.990Z,20.37
2024-04-23T01:02:51.792Z,20.50
2024-04-23T01:05:18.517Z,19.93
2024-04-23T01:07:45.312Z,18.60
2024-04-23T01:10:12.077Z,19.33
2024-04-23T01:12:38.769Z,19.73
2024-04-23T01:15:05.699Z,18.47
2024-04-23T01:17:32.543Z,18.63
2024-04-23T01:20:00.010Z,18.83
2024-04-23T01:22:31.549Z,19.03
2024-04-23T01:25:06.040Z,18.30
2024-04-23T01:27:32.820Z,20.63
2024-04-23T01:29:59.509Z,18.80
2024-04-23T01:32:27.152Z,19.03
2024-04-23T01:34:53.999Z,18.63
2024-04-23T01:37:20.766Z,19.30
2024-04-23T01:39:47.477Z,19.67
2024-04-23T01:42:14.185Z,19.50
2024-04-23T01:44:41.312Z,20.03
2024-04-23T01:47:08.247Z,19.13
2024-04-23T01:49:35.157Z,21.20
2024-04-23T01:52:01.888Z,18.80
2024-04-23T01:54:28.588Z,19.67
2024-04-23T01:56:55.765Z,18.63
2024-04-23T01:59:22.969Z,19.00
2024-04-23T02:01:51.875Z,19.43
2024-04-23T02:04:18.752Z,21.13
2024-04-23T02:06:45.552Z,22.40
2024-04-23T02:09:12.381Z,21.30
2024-04-23T02:11:39.144Z,22.80
2024-04-23T02:14:05.901Z,20.63
2024-04-23T02:16:32.726Z,21.67
2024-04-23T02:18:59.503Z,21.93
2024-04-23T02:21:26.261Z,21.27
2024-04-23T02:23:52.966Z,22.13
2024-04-23T02:26:19.708Z,24.03
2024-04-23T02:28:46.483Z,25.63
2024-04-23T02:31:13.226Z,27.03
2024-04-23T02:33:40.014Z,24.37
2024-04-23T02:36:06.902Z,24.33
2024-04-23T02:38:33.597Z,25.70
2024-04-23T02:41:00.448Z,25.77
2024-04-23T02:43:27.335Z,23.57
2024-04-23T02:45:54.311Z,25.90
2024-04-23T02:48:21.132Z,25.00
2024-04-23T02:50:47.885Z,24.67
2024-04-23T02:53:14.606Z,25.17
2024-04-23T02:55:41.459Z,26.03
2024-04-23T02:58:08.176Z,25.50
2024-04-23T03:00:34.911Z,25.10
2024-04-23T03:03:01.781Z,25.03
2024-04-23T03:05:28.547Z,25.87
2024-04-23T03:07:55.480Z,24.53
2024-04-23T03:10:22.767Z,24.53
2024-04-23T03:12:49.483Z,24.43
2024-04-23T03:15:16.218Z,24.50
2024-04-23T03:17:43.436Z,24.33
2024-04-23T03:20:10.315Z,25.47
2024-04-23T03:22:37.067Z,22.30
2024-04-23T03:25:04.008Z,23.33
2024-04-23T03:27:30.715Z,22.17
2024-04-23T03:29:57.515Z,23.90
2024-04-23T03:32:24.402Z,23.20
2024-04-23T03:34:51.236Z,22.70
2024-04-23T03:37:18.020Z,22.27
2024-04-23T03:39:44.746Z,22.17
2024-04-23T03:42:11.484Z,23.53
2024-04-23T03:44:39.899Z,22.83
2024-04-23T03:47:07.726Z,22.70
2024-04-23T03:49:34.563Z,23.47
2024-04-23T03:52:10.711Z,21.73
2024-04-23T03:54:37.771Z,21.80
2024-04-23T03:57:04.548Z,21.63
2024-04-23T03:59:31.306Z,21.23
2024-04-23T04:02:21.141Z,22.77
2024-04-23T04:05:07.231Z,21.50
2024-04-23T04:07:34.063Z,22.50
2024-04-23T04:10:00.861Z,21.27
2024-04-23T04:12:27.619Z,22.37
2024-04-23T04:14:54.342Z,20.10
2024-04-23T04:17:21.131Z,21.57
2024-04-23T04:19:48.510Z,20.77
2024-04-23T04:22:15.268Z,20.93
2024-04-23T04:24:41.942Z,20.17
2024-04-23T04:27:08.722Z,21.83
2024-04-23T04:29:35.647Z,19.33
2024-04-23T04:32:02.618Z,20.87
2024-04-23T04:34:29.590Z,20.07
2024-04-23T04:36:56.296Z,19.10
2024-04-23T04:39:22.984Z,17.57
2024-04-23T04:41:49.718Z,16.80
2024-04-23T04:44:16.555Z,17.73
2024-04-23T04:46:43.444Z,17.23
2024-04-23T04:49:10.229Z,17.00
2024-04-23T04:51:36.978Z,16.47
2024-04-23T04:54:03.727Z,15.50
2024-04-23T04:56:30.510Z,15.70
2024-04-23T04:58:57.337Z,16.10
2024-04-23T05:01:24.372Z,14.87
2024-04-23T05:03:51.553Z,15.63
2024-04-23T05:06:18.266Z,14.70
2024-04-23T05:08:45.049Z,16.00
2024-04-23T05:11:11.785Z,15.93
2024-04-23T05:13:38.595Z,16.87
2024-04-23T05:16:05.564Z,17.20
2024-04-23T05:18:33.225Z,16.53
2024-04-23T05:21:01.184Z,18.57
2024-04-23T05:23:27.893Z,19.63
2024-04-23T05:25:54.845Z,18.77
2024-04-23T05:28:21.591Z,19.20
2024-04-23T05:31:07.185Z,18.13
2024-04-23T05:33:34.118Z,19.90
2024-04-23T05:36:00.984Z,17.60
2024-04-23T05:38:28.872Z,18.33
2024-04-23T05:40:56.081Z,21.00
2024-04-23T05:43:22.834Z,18.53
2024-04-23T05:45:50.743Z,19.47
2024-04-23T05:48:36.530Z,18.70
2024-04-23T05:51:22.346Z,19.33
2024-04-23T05:54:07.992Z,19.83
2024-04-23T05:56:34.744Z,20.20
2024-04-23T05:59:01.638Z,19.73
2024-04-23T06:01:28.453Z,20.40
2024-04-23T06:03:56.147Z,18.60
2024-04-23T06:06:22.935Z,18.87
2024-04-23T06:08:49.699Z,17.80
2024-04-23T06:11:16.572Z,17.83
2024-04-23T06:13:49.521Z,18.40
2024-04-23T06:16:16.334Z,17.90
2024-04-23T06:18:43.222Z,19.57
2024-04-23T06:21:14.847Z,19.57
2024-04-23T06:23:41.670Z,18.27
2024-04-23T06:26:08.509Z,19.83
2024-04-23T06:28:35.701Z,19.33
2024-04-23T06:31:02.594Z,20.90
2024-04-23T06:33:29.431Z,20.50
2024-04-23T06:35:56.178Z,18.90
2024-04-23T06:38:22.979Z,19.23
2024-04-23T06:40:51.946Z,18.57
2024-04-23T06:43:18.733Z,19.07
2024-04-23T06:45:45.471Z,17.87
2024-04-23T06:48:17.040Z,19.80
2024-04-23T06:50:44.385Z,18.70
2024-04-23T06:53:12.377Z,19.13
2024-04-23T06:55:39.326Z,18.40
2024-04-23T06:58:06.088Z,20.50
2024-04-23T07:00:33.063Z,20.07
2024-04-23T07:02:59.839Z,20.23
2024-04-23T07:05:26.545Z,20.00
2024-04-23T07:07:54.132Z,18.80
2024-04-23T07:10:20.863Z,18.27
2024-04-23T07:12:47.643Z,18.60
2024-04-23T07:15:15.226Z,17.03
2024-04-23T07:17:42.906Z,16.03
2024-04-23T07:20:10.977Z,16.47
2024-04-23T07:22:37.722Z,17.00
2024-04-23T07:25:04.571Z,16.50
2024-04-23T07:27:31.317Z,17.13
2024-04-23T07:29:58.049Z,15.93
2024-04-23T07:32:24.918Z,15.43
2024-04-23T07:34:51.776Z,14.53
2024-04-23T07:37:18.548Z,14.80
2024-04-23T07:39:45.275Z,13.80
2024-04-23T07:42:12.012Z,13.50
2024-04-23T07:44:38.787Z,13.63
2024-04-23T07:47:05.612Z,13.70
2024-04-23T07:49:32.396Z,12.70
2024-04-23T07:51:59.128Z,13.10
2024-04-23T07:54:25.832Z,12.43
2024-04-23T07:56:52.598Z,10.93
2024-04-23T07:59:20.679Z,10.73
2024-04-23T08:01:47.459Z,10.20
2024-04-23T08:04:14.298Z,10.53
2024-04-23T08:06:41.021Z,9.93
2024-04-23T08:09:07.710Z,10.17
2024-04-23T08:11:34.524Z,9.33
2024-04-23T08:14:01.466Z,9.90
2024-04-23T08:16:28.418Z,10.60
2024-04-23T08:18:55.360Z,10.30
2024-04-23T08:21:22.118Z,10.20
2024-04-23T08:23:50.466Z,11.57
2024-04-23T08:26:17.374Z,11.37
2024-04-23T08:28:45.571Z,11.37
2024-04-23T08:31:12.484Z,10.53
2024-04-23T08:33:39.434Z,11.37
2024-04-23T08:36:06.368Z,11.50
2024-04-23T08:38:33.090Z,10.70
2024-04-23T08:41:00.524Z,11.80
2024-04-23T08:43:34.717Z,11.90
2024-04-23T08:46:02.041Z,12.37
2024-04-23T08:48:34.117Z,11.83
2024-04-23T08:51:01.759Z,12.47
2024-04-23T08:53:29.109Z,11.57
2024-04-23T08:56:02.324Z,11.80
2024-04-23T08:58:29.190Z,10.57
2024-04-23T09:00:57.714Z,11.83
2024-04-23T09:03:24.832Z,11.67
2024-04-23T09:05:51.613Z,10.80
2024-04-23T09:08:20.693Z,11.50
2024-04-23T09:10:49.744Z,10.90
2024-04-23T09:13:16.650Z,10.30
2024-04-23T09:15:43.806Z,10.80
2024-04-23T09:18:11.601Z,11.13
2024-04-23T09:20:38.735Z,10.23
2024-04-23T09:23:06.303Z,10.30
2024-04-23T09:25:34.800Z,10.20
2024-04-23T09:28:02.669Z,8.37
2024-04-23T09:30:31.421Z,9.20
2024-04-23T09:33:04.720Z,9.33
2024-04-23T09:35:31.662Z,8.80
2024-04-23T09:37:58.530Z,8.17
2024-04-23T09:40:25.332Z,9.10
2024-04-23T09:42:54.393Z,8.97
2024-04-23T09:45:26.376Z,10.43
2024-04-23T09:47:53.325Z,9.83
2024-04-23T09:50:23.063Z,10.47
2024-04-23T09:52:49.980Z,9.80
2024-04-23T09:55:17.880Z,9.40
2024-04-23T09:57:45.007Z,8.77
2024-04-23T10:00:12.433Z,8.73
2024-04-23T10:02:40.799Z,8.80
2024-04-23T10:05:09.499Z,7.73
2024-04-23T10:07:42.253Z,7.80
2024-04-23T10:10:09.356Z,7.40
2024-04-23T10:12:36.226Z,7.23
2024-04-23T10:15:09.436Z,8.70
2024-04-23T10:17:38.824Z,6.77
2024-04-23T10:20:05.874Z,6.60
2024-04-23T10:22:32.820Z,6.83
2024-04-23T10:24:59.632Z,6.90
2024-04-23T10:27:26.588Z,7.83
2024-04-23T10:29:53.636Z,7.33
2024-04-23T10:32:20.748Z,7.17
2024-04-23T10:34:48.239Z,7.17
2024-04-23T10:37:18.097Z,6.70
2024-04-23T10:39:44.812Z,7.07
2024-04-23T10:42:11.619Z,7.10
2024-04-23T10:44:40.592Z,7.40
2024-04-23T10:47:08.484Z,6.87
2024-04-23T10:49:37.800Z,7.37
2024-04-23T10:52:04.660Z,7.10
2024-04-23T10:54:31.395Z,7.10
2024-04-23T10:57:01.773Z,7.03
2024-04-23T10:59:32.496Z,7.57
2024-04-23T11:02:03.108Z,7.33
2024-04-23T11:04:34.354Z,7.37
2024-04-23T11:07:04.853Z,6.70
2024-04-23T11:09:44.338Z,7.47
2024-04-23T11:12:26.495Z,6.17
2024-04-23T11:14:53.435Z,6.90
2024-04-23T11:17:20.797Z,7.20
2024-04-23T11:19:53.300Z,6.87
2024-04-23T11:22:39.176Z,6.83
2024-04-23T11:25:06.916Z,6.83
2024-04-23T11:27:36.911Z,6.40
2024-04-23T11:30:03.990Z,6.50
2024-04-23T11:32:30.848Z,7.00
2024-04-23T11:34:57.794Z,7.20
2024-04-23T11:37:25.125Z,7.03
2024-04-23T11:40:01.118Z,8.43
2024-04-23T11:42:31.534Z,6.77
2024-04-23T11:44:58.634Z,7.17
2024-04-23T11:47:28.773Z,7.90
2024-04-23T11:49:56.213Z,7.00
2024-04-23T11:52:23.206Z,6.77
2024-04-23T11:54:49.965Z,6.83
2024-04-23T11:57:17.848Z,6.50
2024-04-23T11:59:44.566Z,7.63
2024-04-23T12:02:11.312Z,7.83
2024-04-23T12:04:38.649Z,7.63
2024-04-23T12:07:05.601Z,6.70
2024-04-23T12:09:32.538Z,6.67
2024-04-23T12:12:00.404Z,6.67
2024-04-23T12:14:27.567Z,7.50
2024-04-23T12:16:54.350Z,7.73
2024-04-23T12:19:21.103Z,7.57
2024-04-23T12:21:47.825Z,8.10
2024-04-23T12:24:16.587Z,7.70
2024-04-23T12:26:44.539Z,8.40
2024-04-23T12:29:11.740Z,7.53
2024-04-23T12:31:38.868Z,8.20
2024-04-23T12:34:05.693Z,7.00
2024-04-23T12:36:32.810Z,7.70
2024-04-23T12:39:09.198Z,8.17
2024-04-23T12:41:35.914Z,6.43
2024-04-23T12:44:02.656Z,6.93
2024-04-23T12:46:29.469Z,6.83
2024-04-23T12:48:56.405Z,6.13
2024-04-23T12:51:23.600Z,5.70
2024-04-23T12:53:50.324Z,6.03
2024-04-23T12:56:17.170Z,6.70
2024-04-23T12:58:43.952Z,7.53
2024-04-23T13:01:10.850Z,6.17
2024-04-23T13:03:37.730Z,8.00
2024-04-23T13:06:04.589Z,7.17
2024-04-23T13:08:35.715Z,7.57
2024-04-23T13:11:02.495Z,7.13
2024-04-23T13:13:29.714Z,6.73
2024-04-23T13:15:56.674Z,6.83
2024-04-23T13:18:24.667Z,6.30
2024-04-23T13:20:51.532Z,7.53
2024-04-23T13:23:18.324Z,6.50
2024-04-23T13:25:45.157Z,6.03
2024-04-23T13:28:11.923Z,7.00
2024-04-23T13:30:38.765Z,7.57
2024-04-23T13:33:05.610Z,6.70
2024-04-23T13:35:32.457Z,7.43
2024-04-23T13:37:59.209Z,7.67
2024-04-23T13:40:25.968Z,6.93
2024-04-23T13:42:52.691Z,6.37
2024-04-23T13:45:19.447Z,6.27
2024-04-23T13:47:47.719Z,6.73
2024-04-23T13:50:14.981Z,5.93
2024-04-23T13:52:43.251Z,6.93
2024-04-23T13:55:10.291Z,6.03
2024-04-23T13:57:38.100Z,5.73
2024-04-23T14:00:05.301Z,6.33
2024-04-23T14:02:32.230Z,5.80
2024-04-23T14:04:59.920Z,5.93
2024-04-23T14:07:26.739Z,7.17
2024-04-23T14:09:53.438Z,6.73
2024-04-23T14:12:20.181Z,6.57
2024-04-23T14:14:46.999Z,7.07
2024-04-23T14:17:13.794Z,7.03
2024-04-23T14:19:40.539Z,6.00
2024-04-23T14:22:07.542Z,6.67
2024-04-23T14:24:34.291Z,6.77
2024-04-23T14:27:01.030Z,6.50
2024-04-23T14:29:27.902Z,7.57
2024-04-23T14:31:54.995Z,6.70
2024-04-23T14:34:24.557Z,7.23
2024-04-23T14:36:51.520Z,7.93
2024-04-23T14:39:18.522Z,8.23
2024-04-23T14:41:46.694Z,6.77
2024-04-23T14:44:13.658Z,6.60
2024-04-23T14:46:41.581Z,6.07
2024-04-23T14:49:19.115Z,6.60
2024-04-23T14:51:51.230Z,6.57
2024-04-23T14:54:18.098Z,5.97
2024-04-23T14:56:44.833Z,6.47
2024-04-23T14:59:11.816Z,6.13
2024-04-23T15:01:40.123Z,7.23
2024-04-23T15:04:07.110Z,7.17
2024-04-23T15:06:33.893Z,6.73
2024-04-23T15:09:01.147Z,6.37
2024-04-23T15:11:28.144Z,7.13
2024-04-23T15:13:55.448Z,6.03
2024-04-23T15:16:22.212Z,6.93
2024-04-23T15:18:49.006Z,6.33
2024-04-23T15:21:15.966Z,7.57
2024-04-23T15:23:42.703Z,6.03
2024-04-23T15:26:09.524Z,6.70
2024-04-23T15:28:39.238Z,6.97
2024-04-23T15:31:06.532Z,6.30
2024-04-23T15:33:36.746Z,6.53
2024-04-23T15:36:09.976Z,6.57
2024-04-23T15:38:40.033Z,6.73
2024-04-23T15:41:07.521Z,6.17
2024-04-23T15:43:34.345Z,6.40
2024-04-23T15:46:01.117Z,6.03
2024-04-23T15:48:31.303Z,7.60
2024-04-23T15:50:59.306Z,6.80
2024-04-23T15:53:26.425Z,6.43
2024-04-23T15:55:53.308Z,7.30
2024-04-23T15:58:20.103Z,6.17
2024-04-23T16:00:46.878Z,6.40
2024-04-23T16:03:16.026Z,6.23
2024-04-23T16:05:42.801Z,6.77
2024-04-23T16:08:09.633Z,7.57
2024-04-23T16:10:36.479Z,6.90
2024-04-23T16:13:03.322Z,6.23
2024-04-23T16:15:30.107Z,7.13
2024-04-23T16:17:56.964Z,7.53
2024-04-23T16:20:23.939Z,7.03
2024-04-23T16:22:50.777Z,6.97
2024-04-23T16:25:17.539Z,6.77
2024-04-23T16:27:44.346Z,7.17
2024-04-23T16:30:11.197Z,6.50
2024-04-23T16:32:38.031Z,8.30
2024-04-23T16:35:05.057Z,7.40
2024-04-23T16:37:33.710Z,7.40
2024-04-23T16:40:00.548Z,7.27
2024-04-23T16:42:27.248Z,7.57
2024-04-23T16:44:55.185Z,7.33
2024-04-23T16:47:21.957Z,7.27
2024-04-23T16:49:48.775Z,7.90
2024-04-23T16:52:15.528Z,6.73
2024-04-23T16:54:42.255Z,7.57
2024-04-23T16:57:08.995Z,7.10
2024-04-23T16:59:35.860Z,7.83
2024-04-23T17:02:02.662Z,8.07
2024-04-23T17:04:29.401Z,8.30
2024-04-23T17:06:58.802Z,7.30
2024-04-23T17:09:25.777Z,7.90
2024-04-23T17:11:52.618Z,7.50
2024-04-23T17:14:19.494Z,7.73
2024-04-23T17:16:46.297Z,8.20
2024-04-23T17:19:13.133Z,7.70
2024-04-23T17:21:40.140Z,7.67
2024-04-23T17:24:07.334Z,7.43
2024-04-23T17:26:34.125Z,7.97
2024-04-23T17:29:01.503Z,8.10
2024-04-23T17:31:29.135Z,7.73
2024-04-23T17:33:55.929Z,7.87
2024-04-23T17:36:24.129Z,8.77
2024-04-23T17:38:50.876Z,8.17
2024-04-23T17:41:17.695Z,8.57
2024-04-23T17:43:44.464Z,8.90
2024-04-23T17:46:14.407Z,8.73
2024-04-23T17:48:41.198Z,8.93
2024-04-23T17:51:08.019Z,8.97
2024-04-23T17:53:34.809Z,8.23
2024-04-23T17:56:02.180Z,8.53
2024-04-23T17:58:33.899Z,8.77
2024-04-23T18:01:07.584Z,8.83
2024-04-23T18:03:42.642Z,8.50
2024-04-23T18:06:11.289Z,9.20
2024-04-23T18:08:38.303Z,8.60
2024-04-23T18:11:08.288Z,9.17
2024-04-23T18:13:40.116Z,8.17
2024-04-23T18:16:07.659Z,9.10
2024-04-23T18:18:34.446Z,9.13
2024-04-23T18:21:01.586Z,8.93
2024-04-23T18:23:32.070Z,10.03
2024-04-23T18:25:59.637Z,9.73
2024-04-23T18:28:26.438Z,9.93
2024-04-23T18:30:53.190Z,12.20
2024-04-23T18:33:19.979Z,11.80
2024-04-23T18:35:46.782Z,11.97
2024-04-23T18:38:13.596Z,11.43
2024-04-23T18:40:40.387Z,10.97
2024-04-23T18:43:07.170Z,12.40
2024-04-23T18:45:33.946Z,12.00
2024-04-23T18:48:00.986Z,11.70
2024-04-23T18:50:28.028Z,11.67
2024-04-23T18:52:54.941Z,12.23
2024-04-23T18:55:21.741Z,11.67
2024-04-23T18:57:48.632Z,12.40
2024-04-23T19:00:15.437Z,12.43
2024-04-23T19:02:42.421Z,12.43
2024-04-23T19:05:09.338Z,12.33
2024-04-23T19:07:36.508Z,13.10
2024-04-23T19:10:03.358Z,11.93
2024-04-23T19:12:30.279Z,12.47
2024-04-23T19:14:57.095Z,13.63
2024-04-23T19:17:23.938Z,13.43
2024-04-23T19:19:50.892Z,13.50
2024-04-23T19:22:17.762Z,12.40
2024-04-23T19:24:44.667Z,11.47
2024-04-23T19:27:13.290Z,13.30
2024-04-23T19:29:40.284Z,13.23
2024-04-23T19:32:07.387Z,12.93
2024-04-23T19:34:34.354Z,14.30
2024-04-23T19:37:04.215Z,12.80
2024-04-23T19:39:32.184Z,12.87
2024-04-23T19:41:58.929Z,12.57
2024-04-23T19:44:25.786Z,12.97
2024-04-23T19:46:52.699Z,12.63
2024-04-23T19:49:19.515Z,12.17
2024-04-23T19:51:46.406Z,12.30
2024-04-23T19:54:13.170Z,11.60
2024-04-23T19:56:52.161Z,11.37
2024-04-23T19:59:20.084Z,11.27
2024-04-23T20:01:46.988Z,11.33
2024-04-23T20:04:14.523Z,11.00
2024-04-23T20:06:41.378Z,12.07
2024-04-23T20:09:08.595Z,11.17
2024-04-23T20:11:36.849Z,11.87
2024-04-23T20:14:03.821Z,11.20
2024-04-23T20:16:32.951Z,10.50
2024-04-23T20:18:59.780Z,11.20
2024-04-23T20:21:26.586Z,11.20
2024-04-23T20:23:54.346Z,11.30
2024-04-23T20:26:21.598Z,12.70
2024-04-23T20:28:48.452Z,11.60
2024-04-23T20:31:15.308Z,13.27
2024-04-23T20:33:42.651Z,11.80
2024-04-23T20:36:09.542Z,12.47
2024-04-23T20:38:36.286Z,12.10
2024-04-23T20:41:10.835Z,12.93
2024-04-23T20:43:38.145Z,13.20
2024-04-23T20:46:05.547Z,13.43
2024-04-23T20:48:32.929Z,13.33
2024-04-23T20:50:59.752Z,13.80
2024-04-23T20:53:26.719Z,14.60
2024-04-23T20:55:53.552Z,15.80
2024-04-23T20:58:22.263Z,15.00
2024-04-23T21:00:49.283Z,15.20
2024-04-23T21:03:16.165Z,14.30
2024-04-23T21:05:43.050Z,15.30
2024-04-23T21:08:12.118Z,14.70
2024-04-23T21:10:39.635Z,15.13
2024-04-23T21:13:06.663Z,14.93
2024-04-23T21:15:33.828Z,13.77
2024-04-23T21:18:01.054Z,15.37
2024-04-23T21:20:28.300Z,16.83
2024-04-23T21:22:55.251Z,15.27
2024-04-23T21:25:22.221Z,14.37
2024-04-23T21:27:49.150Z,14.73
2024-04-23T21:30:16.043Z,16.80
2024-04-23T21:32:43.131Z,16.13
2024-04-23T21:35:10.260Z,16.10
2024-04-23T21:37:37.110Z,16.47
2024-04-23T21:40:04.033Z,15.70
2024-04-23T21:42:38.985Z,17.87
2024-04-23T21:45:08.328Z,15.93
2024-04-23T21:47:35.312Z,16.63
2024-04-23T21:50:02.589Z,16.93
2024-04-23T21:52:39.160Z,16.73
2024-04-23T21:55:08.605Z,16.47
2024-04-23T21:57:35.441Z,16.73
2024-04-23T22:00:02.292Z,16.90
2024-04-23T22:02:29.369Z,17.00
2024-04-23T22:04:56.184Z,17.00
2024-04-23T22:07:23.022Z,18.70
2024-04-23T22:09:49.876Z,18.50
2024-04-23T22:12:16.717Z,18.13
2024-04-23T22:14:43.446Z,18.37
2024-04-23T22:17:11.940Z,18.37
2024-04-23T22:19:38.752Z,19.80
2024-04-23T22:22:05.758Z,21.13
2024-04-23T22:24:32.747Z,19.20
2024-04-23T22:26:59.490Z,18.83
2024-04-23T22:29:26.280Z,19.60
2024-04-23T22:31:53.045Z,18.83
2024-04-23T22:34:20.221Z,18.23
2024-04-23T22:36:47.106Z,18.07
2024-04-23T22:39:13.853Z,19.60
2024-04-23T22:41:40.590Z,17.83
2024-04-23T22:44:07.417Z,17.63
2024-04-23T22:46:34.162Z,18.93
2024-04-23T22:49:03.846Z,20.43
2024-04-23T22:51:30.576Z,20.77
2024-04-23T22:53:57.395Z,20.63
2024-04-23T22:56:24.259Z,21.00
2024-04-23T22:58:51.124Z,23.13
2024-04-23T23:01:17.908Z,25.43
2024-04-23T23:03:44.704Z,24.70
2024-04-23T23:06:11.513Z,23.23
2024-04-23T23:08:38.257Z,22.43
2024-04-23T23:11:05.137Z,21.80
2024-04-23T23:13:32.024Z,22.33
2024-04-23T23:15:59.147Z,22.07
2024-04-23T23:18:25.903Z,22.47
2024-04-23T23:20:52.773Z,21.80
2024-04-23T23:23:19.861Z,22.77
2024-04-23T23:25:46.655Z,23.07
2024-04-23T23:28:13.550Z,23.67
2024-04-23T23:30:40.381Z,23.10
2024-04-23T23:33:10.295Z,22.17
2024-04-23T23:35:37.286Z,23.37
2024-04-23T23:38:04.205Z,25.80
2024-04-23T23:40:30.937Z,24.53
2024-04-23T23:42:58.189Z,23.90
2024-04-23T23:45:26.820Z,22.87
2024-04-23T23:47:55.327Z,22.60
2024-04-23T23:50:22.252Z,21.17
2024-04-23T23:52:49.066Z,23.03
2024-04-23T23:55:15.976Z,22.50
2024-04-23T23:57:42.818Z,22.23
